TimeEST,TemperatureF,Dew PointF,Humidity,Sea Level PressureIn,VisibilityMPH,Wind Direction,Wind SpeedMPH,Gust SpeedMPH,PrecipitationIn,Events,Conditions,WindDirDegrees,DateUTC
12:05 AM,34.0,17.2,50,30.40,10.0,Calm,Calm,-,N/A,,Clear,0,2013-11-13 05:05:00
12:25 AM,34.0,17.4,51,30.40,10.0,Calm,Calm,-,N/A,,Clear,0,2013-11-13 05:25:00
12:45 AM,33.8,17.8,52,30.40,10.0,West,3.5,-,N/A,,Clear,280,2013-11-13 05:45:00
1:05 AM,33.3,18.1,54,30.40,10.0,Calm,Calm,-,N/A,,Clear,0,2013-11-13 06:05:00
1:25 AM,32.9,18.5,55,30.40,10.0,WNW,4.6,-,N/A,,Clear,300,2013-11-13 06:25:00
1:45 AM,33.3,19.0,56,30.40,10.0,NW,4.6,-,N/A,,Clear,310,2013-11-13 06:45:00
2:05 AM,32.9,19.4,58,30.40,10.0,WNW,3.5,-,N/A,,Clear,300,2013-11-13 07:05:00
2:25 AM,32.9,19.9,59,30.40,10.0,WNW,5.8,-,N/A,,Clear,290,2013-11-13 07:25:00
2:45 AM,32.9,19.9,59,30.40,10.0,WNW,4.6,-,N/A,,Clear,290,2013-11-13 07:45:00
3:05 AM,33.1,19.8,58,30.40,10.0,WNW,3.5,-,N/A,,Clear,290,2013-11-13 08:05:00
3:20 AM,33.1,19.4,57,30.40,10.0,WNW,3.5,-,N/A,,Clear,290,2013-11-13 08:20:00
3:45 AM,32.4,19.4,59,30.41,10.0,West,4.6,-,N/A,,Clear,280,2013-11-13 08:45:00
4:05 AM,32.4,19.2,58,30.41,10.0,West,4.6,-,N/A,,Clear,280,2013-11-13 09:05:00
4:25 AM,32.2,19.2,59,30.41,10.0,WNW,5.8,-,N/A,,Clear,290,2013-11-13 09:25:00
4:45 AM,32.0,19.2,59,30.41,10.0,Calm,Calm,-,N/A,,Clear,0,2013-11-13 09:45:00
5:00 AM,32.0,19.2,59,30.41,10.0,WNW,3.5,-,N/A,,Clear,300,2013-11-13 10:00:00
5:25 AM,32.0,19.4,60,30.42,10.0,NW,6.9,-,N/A,,Clear,320,2013-11-13 10:25:00
5:45 AM,32.4,19.4,59,30.43,10.0,NW,3.5,-,N/A,,Clear,320,2013-11-13 10:45:00
6:05 AM,32.0,19.8,61,30.43,10.0,Calm,Calm,-,N/A,,Clear,0,2013-11-13 11:05:00
6:25 AM,32.0,19.9,61,30.44,10.0,WNW,4.6,-,N/A,,Clear,290,2013-11-13 11:25:00
6:45 AM,32.0,20.1,62,30.45,10.0,WNW,3.5,-,N/A,,Clear,290,2013-11-13 11:45:00
7:05 AM,32.2,20.3,62,30.45,10.0,Calm,Calm,-,N/A,,Clear,0,2013-11-13 12:05:00
7:25 AM,32.9,20.3,60,30.46,10.0,WNW,4.6,-,N/A,,Clear,290,2013-11-13 12:25:00
7:45 AM,33.8,21.0,60,30.46,10.0,WNW,4.6,-,N/A,,Mostly Cloudy,290,2013-11-13 12:45:00
8:05 AM,34.2,21.0,59,30.47,10.0,West,3.5,-,N/A,,Overcast,280,2013-11-13 13:05:00
8:25 AM,36.0,21.0,55,30.47,10.0,NNW,6.9,-,N/A,,Scattered Clouds,330,2013-11-13 13:25:00
8:45 AM,36.9,20.7,52,30.47,10.0,NNW,10.4,-,N/A,,Clear,330,2013-11-13 13:45:00
9:05 AM,37.4,19.8,49,30.47,10.0,NNW,11.5,19.6,N/A,,Clear,330,2013-11-13 14:05:00
9:25 AM,38.7,18.9,45,30.47,10.0,NNW,10.4,19.6,N/A,,Clear,330,2013-11-13 14:25:00
9:45 AM,39.2,18.9,44,30.48,10.0,North,8.1,17.3,N/A,,Scattered Clouds,350,2013-11-13 14:45:00
10:05 AM,39.7,18.0,42,30.48,10.0,NW,8.1,19.6,N/A,,Scattered Clouds,320,2013-11-13 15:05:00
10:25 AM,41.2,17.1,38,30.48,10.0,NNW,17.3,23.0,N/A,,Mostly Cloudy,340,2013-11-13 15:25:00
10:45 AM,41.2,16.3,37,30.47,10.0,NNW,13.8,23.0,N/A,,Mostly Cloudy,330,2013-11-13 15:45:00
11:05 AM,42.1,16.7,36,30.47,10.0,North,10.4,17.3,N/A,,Scattered Clouds,360,2013-11-13 16:05:00
11:25 AM,40.6,16.2,37,30.46,10.0,NW,10.4,19.6,N/A,,Mostly Cloudy,310,2013-11-13 16:25:00
11:45 AM,41.5,16.7,37,30.45,10.0,NW,9.2,18.4,N/A,,Mostly Cloudy,310,2013-11-13 16:45:00
12:05 PM,43.7,16.5,34,30.44,10.0,NW,11.5,21.9,N/A,,Mostly Cloudy,320,2013-11-13 17:05:00
12:25 PM,43.2,16.5,34,30.43,10.0,NNW,8.1,-,N/A,,Mostly Cloudy,330,2013-11-13 17:25:00
12:45 PM,41.9,16.3,36,30.43,10.0,NW,8.1,17.3,N/A,,Scattered Clouds,320,2013-11-13 17:45:00
1:05 PM,43.2,17.1,35,30.43,10.0,NW,9.2,16.1,N/A,,Clear,310,2013-11-13 18:05:00
1:25 PM,43.5,17.8,36,30.43,10.0,NW,8.1,20.7,N/A,,Scattered Clouds,310,2013-11-13 18:25:00
1:45 PM,43.0,18.0,37,30.42,10.0,WNW,4.6,-,N/A,,Scattered Clouds,300,2013-11-13 18:45:00
2:05 PM,43.2,19.0,38,30.42,10.0,West,10.4,-,N/A,,Scattered Clouds,280,2013-11-13 19:05:00
2:25 PM,43.5,18.7,37,30.42,10.0,NW,10.4,-,N/A,,Scattered Clouds,310,2013-11-13 19:25:00
2:45 PM,44.2,19.2,37,30.43,10.0,WNW,13.8,17.3,N/A,,Scattered Clouds,290,2013-11-13 19:45:00
3:05 PM,43.7,19.0,37,30.42,10.0,NNW,11.5,-,N/A,,Scattered Clouds,330,2013-11-13 20:05:00
3:25 PM,43.7,18.5,36,30.42,10.0,WNW,6.9,-,N/A,,Clear,290,2013-11-13 20:25:00
3:45 PM,43.3,18.5,37,30.42,10.0,NW,4.6,-,N/A,,Clear,320,2013-11-13 20:45:00
4:05 PM,43.3,18.0,36,30.43,10.0,NW,6.9,-,N/A,,Clear,310,2013-11-13 21:05:00
4:25 PM,43.0,17.2,36,30.42,10.0,West,6.9,-,N/A,,Clear,280,2013-11-13 21:25:00
4:45 PM,41.9,17.8,38,30.42,10.0,WNW,3.5,-,N/A,,Clear,300,2013-11-13 21:45:00
5:05 PM,41.9,16.9,36,30.42,10.0,WNW,5.8,-,N/A,,Clear,290,2013-11-13 22:05:00
5:25 PM,41.4,17.1,38,30.42,10.0,WNW,3.5,-,N/A,,Clear,290,2013-11-13 22:25:00
5:45 PM,38.8,19.6,46,30.43,10.0,Calm,Calm,-,N/A,,Clear,0,2013-11-13 22:45:00
6:05 PM,36.3,21.0,54,30.43,10.0,Calm,Calm,-,N/A,,Clear,0,2013-11-13 23:05:00
6:25 PM,35.1,21.4,57,30.43,10.0,Calm,Calm,-,N/A,,Clear,0,2013-11-13 23:25:00
6:45 PM,33.3,23.7,68,30.43,10.0,Calm,Calm,-,N/A,,Clear,0,2013-11-13 23:45:00
7:05 PM,32.9,22.8,66,30.43,10.0,Calm,Calm,-,N/A,,Clear,0,2013-11-14 00:05:00
7:25 PM,32.0,22.8,69,30.43,10.0,Calm,Calm,-,N/A,,Clear,0,2013-11-14 00:25:00
7:45 PM,33.1,21.9,64,30.43,10.0,Calm,Calm,-,N/A,,Clear,0,2013-11-14 00:45:00
8:00 PM,38.1,19.0,46,30.43,10.0,West,3.5,-,N/A,,Clear,270,2013-11-14 01:00:00
8:25 PM,38.7,18.3,44,30.43,10.0,WSW,3.5,-,N/A,,Clear,250,2013-11-14 01:25:00
8:45 PM,38.5,18.3,44,30.42,10.0,West,5.8,-,N/A,,Clear,280,2013-11-14 01:45:00
9:05 PM,37.8,18.5,46,30.43,10.0,West,3.5,-,N/A,,Clear,270,2013-11-14 02:05:00
9:25 PM,37.9,18.3,45,30.43,10.0,West,3.5,-,N/A,,Clear,260,2013-11-14 02:25:00
9:45 PM,37.4,18.5,46,30.43,10.0,Calm,Calm,-,N/A,,Clear,0,2013-11-14 02:45:00
10:05 PM,36.9,18.5,47,30.42,10.0,Calm,Calm,-,N/A,,Clear,0,2013-11-14 03:05:00
10:25 PM,36.9,18.5,47,30.41,10.0,Calm,Calm,-,N/A,,Clear,0,2013-11-14 03:25:00
10:45 PM,36.1,18.3,48,30.41,10.0,West,4.6,-,N/A,,Clear,280,2013-11-14 03:45:00
11:05 PM,36.7,17.8,46,30.40,10.0,Calm,Calm,-,N/A,,Clear,0,2013-11-14 04:05:00
11:25 PM,36.7,17.6,46,30.40,10.0,Calm,Calm,-,N/A,,Clear,0,2013-11-14 04:25:00
11:45 PM,36.0,17.6,47,30.40,10.0,Calm,Calm,-,N/A,,Clear,0,2013-11-14 04:45:00